createdAt,value
2023-04-30T00:00:00.703Z,29.71
2023-04-30T00:01:00.694Z,29.72
2023-04-30T00:02:00.735Z,29.74
2023-04-30T00:03:00.871Z,29.72
2023-04-30T00:04:00.699Z,29.72
2023-04-30T00:05:00.678Z,29.74
2023-04-30T00:06:00.707Z,29.74
2023-04-30T00:07:01.315Z,29.72
2023-04-30T00:08:00.853Z,29.72
2023-04-30T00:09:00.781Z,29.70
2023-04-30T00:10:00.778Z,29.77
2023-04-30T00:11:00.769Z,29.74
2023-04-30T00:12:00.819Z,29.71
2023-04-30T00:13:00.789Z,29.68
2023-04-30T00:14:00.804Z,29.71
2023-04-30T00:15:00.798Z,29.72
2023-04-30T00:16:00.841Z,29.72
2023-04-30T00:17:00.809Z,29.74
2023-04-30T00:18:00.866Z,29.72
2023-04-30T00:19:00.810Z,29.72
2023-04-30T00:20:00.841Z,29.72
2023-04-30T00:21:00.875Z,29.71
2023-04-30T00:22:00.832Z,29.71
2023-04-30T00:23:00.825Z,29.71
2023-04-30T00:24:01.826Z,29.74
2023-04-30T00:25:00.831Z,29.68
2023-04-30T00:26:00.843Z,29.70
2023-04-30T00:27:00.839Z,29.70
2023-04-30T00:28:00.861Z,29.70
2023-04-30T00:29:00.812Z,29.68
2023-04-30T00:30:00.862Z,29.68
2023-04-30T00:31:01.798Z,29.72
2023-04-30T00:32:00.834Z,29.71
2023-04-30T00:33:00.846Z,29.70
2023-04-30T00:34:00.804Z,29.72
2023-04-30T00:35:00.797Z,29.71
2023-04-30T00:36:00.853Z,29.70
2023-04-30T00:37:00.808Z,29.72
2023-04-30T00:38:00.834Z,29.68
2023-04-30T00:39:00.840Z,29.74
2023-04-30T00:40:00.832Z,29.71
2023-04-30T00:41:00.848Z,29.71
2023-04-30T00:42:00.832Z,29.67
2023-04-30T00:43:00.861Z,29.70
2023-04-30T00:44:00.871Z,29.74
2023-04-30T00:45:00.878Z,29.72
2023-04-30T00:46:00.939Z,29.72
2023-04-30T00:47:00.877Z,29.70
2023-04-30T00:48:00.971Z,29.70
2023-04-30T00:49:00.926Z,29.70
2023-04-30T00:50:00.939Z,29.68
2023-04-30T00:51:00.956Z,29.72
2023-04-30T00:52:01.830Z,29.70
2023-04-30T00:53:00.934Z,29.71
2023-04-30T00:54:00.938Z,29.72
2023-04-30T00:55:00.899Z,29.70
2023-04-30T00:56:00.913Z,29.72
2023-04-30T00:57:00.891Z,29.72
2023-04-30T00:58:00.896Z,29.71
2023-04-30T00:59:00.891Z,29.70
2023-04-30T01:00:00.902Z,29.68
2023-04-30T01:01:00.917Z,29.71
2023-04-30T01:02:00.925Z,29.70
2023-04-30T01:03:00.961Z,29.71
2023-04-30T01:04:00.918Z,29.71
2023-04-30T01:05:00.837Z,29.71
2023-04-30T01:06:00.913Z,29.71
2023-04-30T01:07:00.832Z,29.68
2023-04-30T01:08:00.808Z,29.71
2023-04-30T01:09:00.811Z,29.70
2023-04-30T01:10:00.795Z,29.68
2023-04-30T01:11:00.780Z,29.72
2023-04-30T01:12:00.786Z,29.72
2023-04-30T01:13:00.764Z,29.70
2023-04-30T01:14:00.802Z,29.68
2023-04-30T01:15:00.753Z,29.71
2023-04-30T01:16:00.795Z,29.71
2023-04-30T01:17:00.774Z,29.68
2023-04-30T01:18:00.822Z,29.68
2023-04-30T01:19:00.778Z,29.70
2023-04-30T01:20:00.712Z,29.68
2023-04-30T01:21:00.767Z,29.70
2023-04-30T01:22:00.707Z,29.65
2023-04-30T01:23:00.690Z,29.68
2023-04-30T01:24:00.721Z,29.70
2023-04-30T01:25:00.728Z,29.70
2023-04-30T01:26:00.680Z,29.70
2023-04-30T01:27:00.672Z,29.72
2023-04-30T01:28:00.670Z,29.72
2023-04-30T01:29:00.686Z,29.72
2023-04-30T01:30:00.687Z,29.70
2023-04-30T01:31:00.659Z,29.72
2023-04-30T01:32:00.671Z,29.71
2023-04-30T01:33:00.740Z,29.71
2023-04-30T01:34:00.669Z,29.70
2023-04-30T01:35:02.400Z,29.71
2023-04-30T01:36:00.685Z,29.71
2023-04-30T01:37:00.702Z,29.68
2023-04-30T01:38:00.684Z,29.71
2023-04-30T01:39:00.677Z,29.71
2023-04-30T01:40:00.680Z,29.71
2023-04-30T01:41:00.720Z,29.74
2023-04-30T01:42:00.658Z,29.65
2023-04-30T01:43:00.681Z,29.70
2023-04-30T01:44:00.704Z,29.72
2023-04-30T01:45:00.686Z,29.72
2023-04-30T01:46:00.712Z,29.72
2023-04-30T01:47:00.693Z,29.74
2023-04-30T01:48:00.779Z,29.71
2023-04-30T01:49:00.722Z,29.71
2023-04-30T01:50:00.700Z,29.70
2023-04-30T01:51:00.689Z,29.71
2023-04-30T01:52:00.713Z,29.70
2023-04-30T01:53:00.699Z,29.68
2023-04-30T01:54:00.704Z,29.71
2023-04-30T01:55:00.717Z,29.71
2023-04-30T01:56:00.720Z,29.72
2023-04-30T01:57:00.730Z,29.72
2023-04-30T01:58:00.748Z,29.68
2023-04-30T01:59:00.741Z,29.71
2023-04-30T02:00:00.817Z,29.67
2023-04-30T02:01:00.735Z,29.68
2023-04-30T02:02:00.827Z,29.70
2023-04-30T02:03:00.826Z,29.70
2023-04-30T02:04:00.833Z,29.70
2023-04-30T02:05:00.738Z,29.70
2023-04-30T02:06:00.774Z,29.71
2023-04-30T02:07:00.767Z,29.75
2023-04-30T02:08:00.706Z,29.71
2023-04-30T02:09:00.763Z,29.70
2023-04-30T02:10:00.723Z,29.67
2023-04-30T02:11:00.709Z,29.68
2023-04-30T02:12:00.703Z,29.70
2023-04-30T02:13:00.700Z,29.72
2023-04-30T02:14:00.711Z,29.70
2023-04-30T02:15:00.734Z,29.70
2023-04-30T02:16:00.700Z,29.71
2023-04-30T02:17:00.686Z,29.72
2023-04-30T02:18:00.689Z,29.70
2023-04-30T02:19:00.685Z,29.67
2023-04-30T02:20:00.626Z,29.71
2023-04-30T02:21:00.639Z,29.68
2023-04-30T02:22:00.623Z,29.71
2023-04-30T02:23:00.632Z,29.71
2023-04-30T02:24:00.603Z,29.71
2023-04-30T02:25:00.590Z,29.71
2023-04-30T02:26:00.604Z,29.70
2023-04-30T02:27:01.377Z,29.68
2023-04-30T02:28:00.586Z,29.70
2023-04-30T02:29:00.600Z,29.70
2023-04-30T02:30:00.554Z,29.67
2023-04-30T02:31:00.558Z,29.70
2023-04-30T02:32:00.562Z,29.68
2023-04-30T02:33:00.648Z,29.74
2023-04-30T02:34:00.543Z,29.68
2023-04-30T02:35:00.543Z,29.70
2023-04-30T02:36:00.508Z,29.72
2023-04-30T02:37:00.500Z,29.68
2023-04-30T02:38:00.511Z,29.68
2023-04-30T02:39:00.506Z,29.65
2023-04-30T02:40:00.516Z,29.67
2023-04-30T02:41:00.485Z,29.68
2023-04-30T02:42:00.476Z,29.68
2023-04-30T02:43:00.458Z,29.70
2023-04-30T02:44:00.467Z,29.70
2023-04-30T02:45:00.495Z,29.70
2023-04-30T02:46:00.456Z,29.68
2023-04-30T02:47:00.453Z,29.67
2023-04-30T02:48:00.439Z,29.70
2023-04-30T02:49:00.473Z,29.68
2023-04-30T02:50:00.391Z,29.68
2023-04-30T02:51:00.406Z,29.67
2023-04-30T02:52:00.407Z,29.68
2023-04-30T02:53:00.367Z,29.72
2023-04-30T02:54:00.354Z,29.68
2023-04-30T02:55:00.405Z,29.71
2023-04-30T02:56:00.339Z,29.71
2023-04-30T02:57:00.339Z,29.71
2023-04-30T02:58:00.324Z,29.68
2023-04-30T02:59:00.309Z,29.70
2023-04-30T03:00:00.402Z,29.67
2023-04-30T03:01:00.313Z,29.67
2023-04-30T03:02:00.300Z,29.70
2023-04-30T03:03:00.453Z,29.67
2023-04-30T03:04:00.292Z,29.68
2023-04-30T03:05:00.487Z,29.68
2023-04-30T03:06:00.339Z,29.71
2023-04-30T03:07:00.253Z,29.68
2023-04-30T03:08:00.258Z,29.67
2023-04-30T03:09:00.251Z,29.68
2023-04-30T03:10:00.252Z,29.65
2023-04-30T03:11:00.237Z,29.67
2023-04-30T03:12:00.226Z,29.65
2023-04-30T03:13:00.228Z,29.64
2023-04-30T03:14:00.263Z,29.68
2023-04-30T03:15:00.278Z,29.67
2023-04-30T03:16:00.325Z,29.64
2023-04-30T03:17:00.189Z,29.65
2023-04-30T03:18:00.295Z,29.63
2023-04-30T03:19:00.172Z,29.65
2023-04-30T03:20:00.208Z,29.65
2023-04-30T03:21:00.182Z,29.67
2023-04-30T03:22:00.180Z,29.67
2023-04-30T03:23:00.183Z,29.64
2023-04-30T03:24:00.191Z,29.64
2023-04-30T03:25:00.763Z,29.64
2023-04-30T03:26:00.221Z,29.64
2023-04-30T03:27:00.220Z,29.68
2023-04-30T03:28:00.205Z,29.64
2023-04-30T03:29:00.191Z,29.67
2023-04-30T03:30:00.238Z,29.65
2023-04-30T03:31:00.285Z,29.68
2023-04-30T03:32:00.325Z,29.65
2023-04-30T03:33:00.323Z,29.64
2023-04-30T03:34:00.454Z,29.68
2023-04-30T03:35:00.483Z,29.67
2023-04-30T03:36:00.253Z,29.67
2023-04-30T03:37:00.275Z,29.67
2023-04-30T03:38:00.281Z,29.70
2023-04-30T03:39:00.283Z,29.68
2023-04-30T03:40:00.267Z,29.67
2023-04-30T03:41:00.255Z,29.70
2023-04-30T03:42:00.263Z,29.67
2023-04-30T03:43:00.269Z,29.67
2023-04-30T03:44:00.248Z,29.68
2023-04-30T03:45:00.237Z,29.70
2023-04-30T03:46:00.353Z,29.68
2023-04-30T03:47:00.216Z,29.67
2023-04-30T03:48:00.266Z,29.67
2023-04-30T03:49:00.927Z,29.68
2023-04-30T03:50:00.305Z,29.70
2023-04-30T03:51:00.176Z,29.68
2023-04-30T03:52:00.172Z,29.70
2023-04-30T03:53:00.191Z,29.65
2023-04-30T03:54:00.183Z,29.68
2023-04-30T03:55:00.182Z,29.63
2023-04-30T03:56:00.148Z,29.68
2023-04-30T03:57:00.153Z,29.67
2023-04-30T03:58:00.163Z,29.67
2023-04-30T03:59:00.162Z,29.68
2023-04-30T04:00:00.924Z,29.64
2023-04-30T04:01:00.128Z,29.64
2023-04-30T04:02:00.207Z,29.64
2023-04-30T04:03:00.164Z,29.64
2023-04-30T04:04:00.181Z,29.65
2023-04-30T04:05:00.139Z,29.63
2023-04-30T04:06:00.103Z,29.61
2023-04-30T04:07:00.064Z,29.65
2023-04-30T04:08:00.099Z,29.63
2023-04-30T04:09:00.101Z,29.60
2023-04-30T04:10:00.063Z,29.63
2023-04-30T04:11:00.048Z,29.64
2023-04-30T04:12:00.057Z,29.64
2023-04-30T04:13:00.039Z,29.60
2023-04-30T04:14:00.083Z,29.65
2023-04-30T04:15:01.924Z,29.68
2023-04-30T04:16:00.113Z,29.64
2023-04-30T04:17:00.036Z,29.67
2023-04-30T04:18:00.091Z,29.64
2023-04-30T04:18:59.997Z,29.61
2023-04-30T04:20:00.020Z,29.64
2023-04-30T04:20:59.975Z,29.64
2023-04-30T04:21:59.975Z,29.63
2023-04-30T04:23:00.015Z,29.65
2023-04-30T04:23:59.990Z,29.67
2023-04-30T04:25:00.013Z,29.63
2023-04-30T04:26:00.078Z,29.67
2023-04-30T04:27:00.035Z,29.65
2023-04-30T04:28:00.076Z,29.64
2023-04-30T04:29:00.007Z,29.63
2023-04-30T04:30:00.040Z,29.67
2023-04-30T04:31:00.085Z,29.67
2023-04-30T04:32:00.278Z,29.64
2023-04-30T04:33:00.208Z,29.64
2023-04-30T04:34:00.027Z,29.65
2023-04-30T04:35:00.036Z,29.70
2023-04-30T04:36:00.048Z,29.67
2023-04-30T04:37:00.009Z,29.68
2023-04-30T04:37:59.991Z,29.68
2023-04-30T04:38:59.998Z,29.67
2023-04-30T04:40:00.001Z,29.71
2023-04-30T04:40:59.981Z,29.70
2023-04-30T04:41:59.987Z,29.67
2023-04-30T04:42:59.968Z,29.70
2023-04-30T04:43:59.955Z,29.68
2023-04-30T04:44:59.940Z,29.64
2023-04-30T04:46:00.063Z,29.70
2023-04-30T04:46:59.949Z,29.65
2023-04-30T04:47:59.956Z,29.64
2023-04-30T04:48:59.930Z,29.67
2023-04-30T04:49:59.949Z,29.67
2023-04-30T04:50:59.938Z,29.63
2023-04-30T04:51:59.921Z,29.64
2023-04-30T04:52:59.885Z,29.60
2023-04-30T04:53:59.878Z,29.63
2023-04-30T04:54:59.922Z,29.61
2023-04-30T04:55:59.879Z,29.63
2023-04-30T04:56:59.886Z,29.60
2023-04-30T04:57:59.891Z,29.61
2023-04-30T04:58:59.861Z,29.63
2023-04-30T04:59:59.873Z,29.61
2023-04-30T05:00:59.847Z,29.64
2023-04-30T05:01:59.892Z,29.63
2023-04-30T05:02:59.949Z,29.64
2023-04-30T05:04:00.051Z,29.61
2023-04-30T05:04:59.808Z,29.63
2023-04-30T05:05:59.881Z,29.61
2023-04-30T05:06:59.817Z,29.61
2023-04-30T05:07:59.781Z,29.64
2023-04-30T05:08:59.811Z,29.65
2023-04-30T05:09:59.788Z,29.63
2023-04-30T05:10:59.792Z,29.61
2023-04-30T05:11:59.781Z,29.61
2023-04-30T05:12:59.787Z,29.61
2023-04-30T05:13:59.802Z,29.61
2023-04-30T05:14:59.812Z,29.63
2023-04-30T05:15:59.839Z,29.64
2023-04-30T05:16:59.830Z,29.64
2023-04-30T05:17:59.850Z,29.64
2023-04-30T05:18:59.827Z,29.61
2023-04-30T05:19:59.875Z,29.65
2023-04-30T05:20:59.844Z,29.65
2023-04-30T05:21:59.879Z,29.64
2023-04-30T05:22:59.908Z,29.64
2023-04-30T05:23:59.908Z,29.64
2023-04-30T05:24:59.913Z,29.61
2023-04-30T05:25:59.925Z,29.61
2023-04-30T05:26:59.950Z,29.64
2023-04-30T05:27:59.963Z,29.61
2023-04-30T05:28:59.931Z,29.61
2023-04-30T05:30:00.007Z,29.61
2023-04-30T05:30:59.949Z,29.64
2023-04-30T05:32:00.008Z,29.64
2023-04-30T05:33:00.060Z,29.61
2023-04-30T05:33:59.992Z,29.63
2023-04-30T05:35:00.058Z,29.64
2023-04-30T05:36:00.010Z,29.64
2023-04-30T05:37:00.021Z,29.64
2023-04-30T05:38:00.051Z,29.67
2023-04-30T05:39:00.001Z,29.63
2023-04-30T05:40:00.054Z,29.61
2023-04-30T05:41:00.067Z,29.61
2023-04-30T05:41:59.995Z,29.64
2023-04-30T05:42:59.980Z,29.64
2023-04-30T05:44:00.936Z,29.63
2023-04-30T05:44:59.975Z,29.68
2023-04-30T05:46:00.023Z,29.61
2023-04-30T05:46:59.944Z,29.67
2023-04-30T05:47:59.996Z,29.65
2023-04-30T05:48:59.936Z,29.65
2023-04-30T05:49:59.968Z,29.65
2023-04-30T05:50:59.939Z,29.67
2023-04-30T05:51:59.932Z,29.61
2023-04-30T05:52:59.897Z,29.64
2023-04-30T05:53:59.900Z,29.65
2023-04-30T05:54:59.992Z,29.64
2023-04-30T05:55:59.875Z,29.61
2023-04-30T05:56:59.888Z,29.60
2023-04-30T05:57:59.861Z,29.63
2023-04-30T05:58:59.856Z,29.65
2023-04-30T05:59:59.885Z,29.60
2023-04-30T06:00:59.864Z,29.63
2023-04-30T06:01:59.879Z,29.60
2023-04-30T06:02:59.881Z,29.64
2023-04-30T06:03:59.844Z,29.64
2023-04-30T06:04:59.908Z,29.63
2023-04-30T06:05:59.922Z,29.65
2023-04-30T06:06:59.811Z,29.64
2023-04-30T06:07:59.819Z,29.65
2023-04-30T06:08:59.810Z,29.63
2023-04-30T06:09:59.805Z,29.61
2023-04-30T06:10:59.839Z,29.63
2023-04-30T06:11:59.817Z,29.61
2023-04-30T06:12:59.769Z,29.65
2023-04-30T06:13:59.810Z,29.63
2023-04-30T06:14:59.764Z,29.61
2023-04-30T06:15:59.778Z,29.63
2023-04-30T06:16:59.826Z,29.65
2023-04-30T06:17:59.804Z,29.67
2023-04-30T06:18:59.733Z,29.64
2023-04-30T06:19:59.756Z,29.67
2023-04-30T06:20:59.773Z,29.63
2023-04-30T06:21:59.956Z,29.61
2023-04-30T06:22:59.744Z,29.60
2023-04-30T06:23:59.712Z,29.58
2023-04-30T06:24:59.700Z,29.57
2023-04-30T06:25:59.678Z,29.63
2023-04-30T06:26:59.674Z,29.65
2023-04-30T06:27:59.688Z,29.61
2023-04-30T06:28:59.664Z,29.57
2023-04-30T06:29:59.659Z,29.65
2023-04-30T06:30:59.714Z,29.65
2023-04-30T06:31:59.672Z,29.64
2023-04-30T06:32:59.752Z,29.64
2023-04-30T06:33:59.696Z,29.61
2023-04-30T06:34:59.713Z,29.63
2023-04-30T06:35:59.701Z,29.61
2023-04-30T06:36:59.695Z,29.60
2023-04-30T06:37:59.687Z,29.63
2023-04-30T06:38:59.698Z,29.60
2023-04-30T06:39:59.719Z,29.61
2023-04-30T06:40:59.755Z,29.61
2023-04-30T06:41:59.713Z,29.58
2023-04-30T06:42:59.737Z,29.63
2023-04-30T06:43:59.757Z,29.60
2023-04-30T06:44:59.749Z,29.58
2023-04-30T06:45:59.795Z,29.65
2023-04-30T06:46:59.800Z,29.63
2023-04-30T06:47:59.832Z,29.64
2023-04-30T06:48:59.790Z,29.63
2023-04-30T06:49:59.797Z,29.64
2023-04-30T06:50:59.799Z,29.65
2023-04-30T06:51:59.806Z,29.64
2023-04-30T06:52:59.813Z,29.67
2023-04-30T06:53:59.806Z,29.65
2023-04-30T06:54:59.839Z,29.61
2023-04-30T06:55:59.836Z,29.64
2023-04-30T06:56:59.839Z,29.64
2023-04-30T06:57:59.845Z,29.64
2023-04-30T06:58:59.859Z,29.64
2023-04-30T06:59:59.878Z,29.65
2023-04-30T07:00:59.875Z,29.65
2023-04-30T07:01:59.905Z,29.60
2023-04-30T07:02:59.947Z,29.63
2023-04-30T07:03:59.924Z,29.63
2023-04-30T07:04:59.922Z,29.65
2023-04-30T07:05:59.892Z,29.63
2023-04-30T07:06:59.878Z,29.65
2023-04-30T07:07:59.891Z,29.63
2023-04-30T07:08:59.897Z,29.65
2023-04-30T07:09:59.916Z,29.65
2023-04-30T07:10:59.901Z,29.64
2023-04-30T07:11:59.907Z,29.65
2023-04-30T07:12:59.961Z,29.64
2023-04-30T07:13:59.959Z,29.65
2023-04-30T07:14:59.972Z,29.65
2023-04-30T07:16:00.049Z,29.65
2023-04-30T07:16:59.990Z,29.68
2023-04-30T07:18:00.063Z,29.67
2023-04-30T07:19:00.088Z,29.68
2023-04-30T07:20:00.056Z,29.67
2023-04-30T07:21:00.010Z,29.67
2023-04-30T07:22:00.016Z,29.63
2023-04-30T07:23:00.031Z,29.68
2023-04-30T07:24:00.033Z,29.65
2023-04-30T07:25:00.035Z,29.67
2023-04-30T07:26:00.050Z,29.64
2023-04-30T07:27:00.039Z,29.64
2023-04-30T07:28:00.042Z,29.68
2023-04-30T07:29:00.054Z,29.67
2023-04-30T07:30:00.072Z,29.71
2023-04-30T07:31:00.056Z,29.70
2023-04-30T07:32:00.181Z,29.67
2023-04-30T07:33:00.134Z,29.67
2023-04-30T07:34:00.094Z,29.67
2023-04-30T07:35:00.123Z,29.68
2023-04-30T07:36:00.158Z,29.64
2023-04-30T07:37:00.150Z,29.68
2023-04-30T07:38:00.141Z,29.64
2023-04-30T07:39:00.119Z,29.65
2023-04-30T07:40:00.194Z,29.70
2023-04-30T07:41:00.161Z,29.68
2023-04-30T07:42:00.142Z,29.67
2023-04-30T07:43:00.150Z,29.67
2023-04-30T07:44:00.132Z,29.64
2023-04-30T07:45:00.106Z,29.68
2023-04-30T07:46:00.166Z,29.68
2023-04-30T07:47:00.105Z,29.67
2023-04-30T07:48:00.151Z,29.64
2023-04-30T07:49:00.050Z,29.65
2023-04-30T07:50:00.058Z,29.67
2023-04-30T07:51:00.056Z,29.72
2023-04-30T07:52:00.051Z,29.67
2023-04-30T07:53:00.058Z,29.70
2023-04-30T07:54:00.023Z,29.67
2023-04-30T07:55:00.018Z,29.68
2023-04-30T07:56:00.015Z,29.63
2023-04-30T07:57:00.010Z,29.64
2023-04-30T07:58:00.023Z,29.65
2023-04-30T07:58:59.998Z,29.67
2023-04-30T08:00:01.040Z,29.68
2023-04-30T08:00:59.978Z,29.65
2023-04-30T08:02:00.049Z,29.64
2023-04-30T08:03:00.004Z,29.67
2023-04-30T08:04:00.069Z,29.67
2023-04-30T08:04:59.997Z,29.67
2023-04-30T08:06:00.015Z,29.67
2023-04-30T08:06:59.942Z,29.65
2023-04-30T08:07:59.933Z,29.61
2023-04-30T08:08:59.923Z,29.65
2023-04-30T08:09:59.924Z,29.63
2023-04-30T08:10:59.897Z,29.68
2023-04-30T08:11:59.903Z,29.67
2023-04-30T08:12:59.918Z,29.70
2023-04-30T08:13:59.895Z,29.68
2023-04-30T08:14:59.901Z,29.70
2023-04-30T08:15:59.893Z,29.70
2023-04-30T08:16:59.878Z,29.68
2023-04-30T08:17:59.904Z,29.68
2023-04-30T08:18:59.880Z,29.70
2023-04-30T08:19:59.907Z,29.70
2023-04-30T08:21:00.509Z,29.67
2023-04-30T08:21:59.840Z,29.64
2023-04-30T08:22:59.828Z,29.70
2023-04-30T08:23:59.847Z,29.68
2023-04-30T08:24:59.837Z,29.67
2023-04-30T08:25:59.814Z,29.63
2023-04-30T08:26:59.814Z,29.68
2023-04-30T08:27:59.885Z,29.70
2023-04-30T08:28:59.815Z,29.68
2023-04-30T08:29:59.788Z,29.64
2023-04-30T08:30:59.821Z,29.64
2023-04-30T08:31:59.826Z,29.63
2023-04-30T08:32:59.842Z,29.64
2023-04-30T08:34:00.486Z,29.65
2023-04-30T08:34:59.812Z,29.67
2023-04-30T08:35:59.795Z,29.63
2023-04-30T08:36:59.748Z,29.70
2023-04-30T08:37:59.742Z,29.68
2023-04-30T08:38:59.741Z,29.70
2023-04-30T08:39:59.921Z,29.68
2023-04-30T08:40:59.722Z,29.68
2023-04-30T08:41:59.708Z,29.68
2023-04-30T08:42:59.711Z,29.68
2023-04-30T08:43:59.803Z,29.71
2023-04-30T08:44:59.760Z,29.70
2023-04-30T08:45:59.760Z,29.70
2023-04-30T08:47:12.791Z,29.70
2023-04-30T08:47:59.731Z,29.71
2023-04-30T08:48:59.745Z,29.70
2023-04-30T08:50:00.526Z,29.68
2023-04-30T08:50:59.680Z,29.70
2023-04-30T08:51:59.645Z,29.68
2023-04-30T08:52:59.648Z,29.68
2023-04-30T08:53:59.875Z,29.71
2023-04-30T08:54:59.648Z,29.68
2023-04-30T08:55:59.613Z,29.67
2023-04-30T08:56:59.619Z,29.70
2023-04-30T08:57:59.627Z,29.71
2023-04-30T08:58:59.608Z,29.72
2023-04-30T08:59:59.601Z,29.68
2023-04-30T09:00:59.590Z,29.70
2023-04-30T09:01:59.592Z,29.70
2023-04-30T09:02:59.646Z,29.72
2023-04-30T09:03:59.766Z,29.70
2023-04-30T09:04:59.549Z,29.70
2023-04-30T09:05:59.625Z,29.72
2023-04-30T09:06:59.572Z,29.74
2023-04-30T09:08:03.664Z,29.78
2023-04-30T09:08:59.520Z,29.74
2023-04-30T09:09:59.510Z,29.75
2023-04-30T09:10:59.516Z,29.78
2023-04-30T09:11:59.595Z,29.74
2023-04-30T09:13:00.032Z,29.77
2023-04-30T09:13:59.516Z,29.71
2023-04-30T09:14:59.487Z,29.77
2023-04-30T09:15:59.581Z,29.77
2023-04-30T09:16:59.477Z,29.75
2023-04-30T09:17:59.611Z,29.77
2023-04-30T09:18:59.458Z,29.74
2023-04-30T09:19:59.449Z,29.77
2023-04-30T09:20:59.446Z,29.81
2023-04-30T09:21:59.461Z,29.78
2023-04-30T09:22:59.650Z,29.72
2023-04-30T09:23:59.482Z,29.75
2023-04-30T09:24:59.411Z,29.78
2023-04-30T09:25:59.422Z,29.81
2023-04-30T09:26:59.402Z,29.77
2023-04-30T09:27:59.407Z,29.77
2023-04-30T09:28:59.391Z,29.80
2023-04-30T09:29:59.392Z,29.78
2023-04-30T09:30:59.439Z,29.80
2023-04-30T09:31:59.447Z,29.78
2023-04-30T09:32:59.413Z,29.81
2023-04-30T09:33:59.390Z,29.81
2023-04-30T09:34:59.352Z,29.81
2023-04-30T09:35:59.395Z,29.81
2023-04-30T09:37:00.090Z,29.81
2023-04-30T09:37:59.340Z,29.81
2023-04-30T09:38:59.348Z,29.84
2023-04-30T09:39:59.313Z,29.87
2023-04-30T09:40:59.377Z,29.85
2023-04-30T09:42:00.316Z,29.84
2023-04-30T09:42:59.355Z,29.84
2023-04-30T09:43:59.292Z,29.84
2023-04-30T09:44:59.309Z,29.85
2023-04-30T09:45:59.295Z,29.88
2023-04-30T09:46:59.530Z,29.87
2023-04-30T09:48:09.054Z,29.88
2023-04-30T09:49:00.274Z,29.88
2023-04-30T09:49:59.283Z,29.89
2023-04-30T09:50:59.257Z,29.91
2023-04-30T09:51:59.264Z,29.89
2023-04-30T09:52:59.251Z,29.92
2023-04-30T09:53:59.254Z,29.93
2023-04-30T09:54:59.233Z,29.92
2023-04-30T09:55:59.255Z,29.93
2023-04-30T09:56:59.229Z,29.89
2023-04-30T09:57:59.211Z,29.91
2023-04-30T09:58:59.203Z,29.95
2023-04-30T10:00:00.075Z,29.95
2023-04-30T10:00:59.325Z,29.92
2023-04-30T10:01:59.170Z,29.93
2023-04-30T10:02:59.234Z,29.92
2023-04-30T10:03:59.261Z,29.95
2023-04-30T10:04:59.149Z,29.92
2023-04-30T10:05:59.269Z,29.99
2023-04-30T10:06:59.172Z,30.01
2023-04-30T10:07:59.157Z,30.01
2023-04-30T10:08:59.145Z,30.02
2023-04-30T10:09:59.170Z,29.99
2023-04-30T10:10:59.163Z,30.01
2023-04-30T10:11:59.118Z,30.02
2023-04-30T10:12:59.168Z,30.01
2023-04-30T10:13:59.095Z,30.01
2023-04-30T10:15:01.100Z,29.97
2023-04-30T10:15:59.121Z,29.99
2023-04-30T10:16:59.156Z,29.98
2023-04-30T10:17:59.111Z,30.05
2023-04-30T10:18:59.067Z,29.99
2023-04-30T10:19:59.073Z,30.01
2023-04-30T10:20:59.068Z,29.99
2023-04-30T10:21:59.046Z,30.05
2023-04-30T10:22:59.086Z,30.05
2023-04-30T10:23:59.023Z,30.05
2023-04-30T10:24:59.017Z,30.07
2023-04-30T10:25:59.020Z,30.07
2023-04-30T10:26:59.089Z,30.12
2023-04-30T10:27:59.024Z,30.08
2023-04-30T10:28:59.069Z,30.09
2023-04-30T10:29:59.131Z,30.08
2023-04-30T10:30:59.203Z,30.07
2023-04-30T10:31:59.245Z,30.04
2023-04-30T10:32:59.326Z,30.08
2023-04-30T10:33:59.325Z,30.07
2023-04-30T10:34:59.392Z,30.07
2023-04-30T10:35:59.441Z,30.09
2023-04-30T10:36:59.518Z,30.09
2023-04-30T10:37:59.559Z,30.14
2023-04-30T10:38:59.616Z,30.11
2023-04-30T10:39:59.653Z,30.14
2023-04-30T10:40:59.840Z,30.15
2023-04-30T10:41:59.792Z,30.14
2023-04-30T10:42:59.828Z,30.12
2023-04-30T10:44:01.695Z,30.09
2023-04-30T10:44:59.932Z,30.09
2023-04-30T10:46:00.132Z,30.14
2023-04-30T10:47:00.575Z,30.09
2023-04-30T10:48:00.121Z,30.08
2023-04-30T10:48:59.935Z,30.12
2023-04-30T10:49:59.957Z,30.11
2023-04-30T10:51:00.635Z,30.09
2023-04-30T10:51:59.922Z,30.15
2023-04-30T10:52:59.918Z,30.11
2023-04-30T10:54:00.585Z,30.08
2023-04-30T10:54:59.990Z,30.09
2023-04-30T10:56:00.097Z,30.07
2023-04-30T10:57:00.135Z,30.08
2023-04-30T10:58:00.160Z,30.09
2023-04-30T10:59:00.232Z,30.08
2023-04-30T11:00:00.290Z,30.08
2023-04-30T11:01:00.383Z,30.07
2023-04-30T11:02:00.555Z,30.12
2023-04-30T11:03:00.508Z,30.08
2023-04-30T11:04:00.528Z,30.07
2023-04-30T11:05:00.778Z,30.09
2023-04-30T11:06:00.702Z,30.11
2023-04-30T11:07:00.687Z,30.08
2023-04-30T11:08:00.771Z,30.08
2023-04-30T11:09:00.826Z,30.08
2023-04-30T11:10:00.891Z,30.07
2023-04-30T11:11:00.944Z,30.08
2023-04-30T11:12:00.990Z,30.09
2023-04-30T11:13:01.702Z,30.04
2023-04-30T11:14:01.326Z,30.09
2023-04-30T11:15:01.194Z,30.05
2023-04-30T11:16:01.295Z,30.05
2023-04-30T11:17:01.321Z,30.05
2023-04-30T11:18:01.455Z,30.07
2023-04-30T11:19:01.446Z,30.07
2023-04-30T11:20:01.570Z,30.09
2023-04-30T11:21:01.514Z,30.11
2023-04-30T11:22:02.115Z,30.08
2023-04-30T11:23:01.514Z,30.09
2023-04-30T11:24:01.528Z,30.12
2023-04-30T11:25:02.095Z,30.12
2023-04-30T11:26:01.520Z,30.16
2023-04-30T11:27:01.513Z,30.14
2023-04-30T11:28:01.521Z,30.12
2023-04-30T11:29:01.619Z,30.16
2023-04-30T11:30:01.646Z,30.18
2023-04-30T11:31:01.758Z,30.15
2023-04-30T11:32:01.859Z,30.12
2023-04-30T11:33:01.861Z,30.16
2023-04-30T11:34:01.887Z,30.15
2023-04-30T11:35:01.994Z,30.16
2023-04-30T11:36:02.052Z,30.16
2023-04-30T11:37:02.074Z,30.22
2023-04-30T11:38:02.143Z,30.19
2023-04-30T11:39:02.198Z,30.18
2023-04-30T11:40:02.289Z,30.16
2023-04-30T11:41:02.383Z,30.20
2023-04-30T11:42:02.328Z,30.20
2023-04-30T11:43:02.289Z,30.20
2023-04-30T11:44:02.308Z,30.20
2023-04-30T11:45:02.290Z,30.19
2023-04-30T11:46:02.318Z,30.19
2023-04-30T11:47:02.350Z,30.16
2023-04-30T11:48:02.311Z,30.16
2023-04-30T11:49:02.249Z,30.20
2023-04-30T11:50:02.357Z,30.18
2023-04-30T11:51:02.365Z,30.16
2023-04-30T11:52:02.381Z,30.22
2023-04-30T11:53:02.444Z,30.18
2023-04-30T11:54:02.380Z,30.18
2023-04-30T11:55:02.395Z,30.16
2023-04-30T11:56:02.381Z,30.19
2023-04-30T11:57:02.387Z,30.18
2023-04-30T11:58:02.391Z,30.18
2023-04-30T11:59:02.353Z,30.23
2023-04-30T12:00:02.419Z,30.23
2023-04-30T12:01:02.346Z,30.22
2023-04-30T12:02:02.372Z,30.22
2023-04-30T12:03:02.463Z,30.22
2023-04-30T12:04:02.452Z,30.19
2023-04-30T12:05:02.463Z,30.20
2023-04-30T12:06:02.535Z,30.22
2023-04-30T12:07:02.570Z,30.18
2023-04-30T12:08:03.646Z,30.19
2023-04-30T12:09:02.691Z,30.18
2023-04-30T12:10:02.763Z,30.19
2023-04-30T12:11:02.801Z,30.23
2023-04-30T12:12:02.851Z,30.19
2023-04-30T12:13:02.913Z,30.20
2023-04-30T12:14:02.994Z,30.19
2023-04-30T12:15:03.055Z,30.22
2023-04-30T12:16:04.133Z,30.19
2023-04-30T12:17:03.212Z,30.19
2023-04-30T12:18:03.282Z,30.22
2023-04-30T12:19:04.124Z,30.19
2023-04-30T12:20:03.343Z,30.18
2023-04-30T12:21:04.137Z,30.19
2023-04-30T12:22:03.555Z,30.19
2023-04-30T12:23:03.590Z,30.19
2023-04-30T12:24:04.145Z,30.19
2023-04-30T12:25:03.655Z,30.18
2023-04-30T12:26:03.703Z,30.15
2023-04-30T12:27:03.762Z,30.18
2023-04-30T12:28:03.867Z,30.15
2023-04-30T12:29:03.908Z,30.14
2023-04-30T12:30:03.928Z,30.18
2023-04-30T12:31:04.028Z,30.15
2023-04-30T12:32:04.069Z,30.14
2023-04-30T12:33:04.311Z,30.15
2023-04-30T12:34:05.124Z,30.19
2023-04-30T12:35:04.255Z,30.19
2023-04-30T12:36:04.294Z,30.22
2023-04-30T12:37:04.358Z,30.19
2023-04-30T12:38:04.417Z,30.20
2023-04-30T12:39:04.473Z,30.19
2023-04-30T12:40:04.666Z,30.20
2023-04-30T12:41:04.578Z,30.18
2023-04-30T12:42:04.635Z,30.19
2023-04-30T12:43:04.712Z,30.19
2023-04-30T12:44:04.732Z,30.22
2023-04-30T12:45:04.794Z,30.18
2023-04-30T12:46:04.914Z,30.20
2023-04-30T12:47:04.926Z,30.23
2023-04-30T12:48:05.632Z,30.25
2023-04-30T12:49:05.021Z,30.22
2023-04-30T12:50:05.121Z,30.22
2023-04-30T12:51:05.236Z,30.25
2023-04-30T12:52:05.197Z,30.22